POGODA: Poland

Lotnisko: Gdansk-Rebiechowo

METAR KOD: EPGD


METAR: EPGD 301230Z 33009KT 9999 FEW019 10/05 Q1023


BLOK
Pogoda METAR
301230Z
Dzien: 30, Godzina: 12:30 UTC.
33009KT
Wiatr z kierunku 330, o predkosci 17 km/h
9999
Widzialnosc pozioma ponad 10 km.
FEW019
1/8 - 2/8 pokrycia nieba, chmurami o podstawie: 570 metrow
10/05
Temperatura: powietrze 10°C, punkt rosy 5°C . Wilgotnosc wzgledna 50 %
Q1023
Cisnienie: 1023 hPa

Pogoda na innym lotnisku

Pogoda Gdansk-Rebiechowo WEATHER Poland  
Pogoda Katowice WEATHER Poland  
Pogoda Krakow WEATHER Poland  
Pogoda Poznan WEATHER Poland  
Pogoda Rzeszow-Jasionka WEATHER Poland  
Pogoda Szczecin WEATHER Poland  
Pogoda Warszawa-Okecie WEATHER Poland  
Pogoda Wroclaw Ii WEATHER Poland  

Pogoda w inny kraju

Strona startowa

(C) by GREGOR 2007
Ogłoszenia Towarzyskie